Latest Coastal Weather Observations for Hillarys Point Boat Harbour

IDW60701

Issued at 7:42 pm WST Saturday 31 January 2015 (issued every 10 minutes, with the page automatically refreshed every 10 minutes)

About coastal observations | Map of coastal stations | Coastal observations for WA | Marine services | Other Formats
Station Details ID: 009265 Name: HILLARYS BOAT HARBOUR NTC AWS Lat: -31.83 Lon: 115.74 Height: 0.0 m
Data from the previous 72 hours. | See also: Recent months for locations in Western Australia
Date/Time
WST
Temp

°C
Wind Pressure Rain
since 9am
mm
Weather Cloud Vis
km
Sea
Height
m
Swell
Dir
 
Speed
knots
Gust
knots
hPa Trend Height
m
Period
s
Dir
31/07:30pm 29.6 E 5 10 1011.7 - - - - - - - - -
31/07:00pm 30.0 E 6 15 1011.4 - - - - - - - - -
31/06:30pm 30.6 E 7 15 1011.4 - - - - - - - - -
31/06:00pm 30.7 E 4 9 1011.3 - - - - - - - - -
31/05:30pm 30.9 E 3 9 1011.1 - - - - - - - - -
31/05:00pm 31.2 ESE 4 11 1011.5 - - - - - - - - -
31/04:30pm 31.0 E 4 11 1011.9 - - - - - - - - -
31/04:00pm 30.5 E 4 10 1012.2 - - - - - - - - -
31/03:30pm 29.8 E 4 8 1012.5 - - - - - - - - -
31/03:00pm 29.4 E 3 9 1012.6 - - - - - - - - -
31/02:30pm 29.1 ENE 7 13 1012.7 - - - - - - - - -
31/02:00pm 28.8 E 5 10 1012.5 - - - - - - - - -
31/01:30pm 28.1 E 5 11 1012.6 - - - - - - - - -
31/01:00pm 28.1 E 5 12 1012.8 - - - - - - - - -
31/12:30pm 27.8 E 7 13 1012.7 - - - - - - - - -
31/12:00pm 27.9 E 4 9 1012.8 - - - - - - - - -
31/11:30am 27.6 E 6 11 1012.9 - - - - - - - - -
31/11:00am 27.1 E 6 11 1013.0 - - - - - - - - -
31/10:30am 26.1 E 8 16 1013.0 - - - - - - - - -
31/10:00am 25.6 E 7 13 1013.3 - - - - - - - - -
31/09:30am 24.7 E 7 17 1013.2 - - - - - - - - -
31/09:00am 23.8 E 7 18 1013.3 - - - - - - - - -
31/08:30am 22.7 E 9 15 1013.2 - - - - - - - - -
31/08:00am 21.8 E 10 17 1013.4 - - - - - - - - -
31/07:30am 20.9 E 9 18 1013.4 - - - - - - - - -
31/07:00am 20.7 E 8 15 1013.3 - - - - - - - - -
31/06:30am 20.5 E 8 15 1013.0 - - - - - - - - -
31/06:00am 20.5 E 9 15 1012.9 - - - - - - - - -
31/05:30am 21.1 E 6 12 1012.8 - - - - - - - - -
31/05:00am 21.3 E 8 19 1012.1 - - - - - - - - -
31/04:30am 21.4 ENE 10 19 1012.0 - - - - - - - - -
31/04:00am 21.6 E 11 20 1011.7 - - - - - - - - -
31/03:30am 22.1 ENE 12 19 1011.9 - - - - - - - - -
31/03:00am 23.0 E 11 21 1011.9 - - - - - - - - -
31/02:30am 23.8 E 11 20 1012.0 - - - - - - - - -
31/02:00am 24.6 E 11 23 1011.7 - - - - - - - - -
31/01:30am 25.7 E 10 16 1011.6 - - - - - - - - -
31/01:00am 26.5 E 9 15 1011.5 - - - - - - - - -
31/12:30am 27.5 E 8 16 1011.3 - - - - - - - - -
31/12:00am 28.5 E 9 21 1011.3 - - - - - - - - -
 
Date/Time
WST
Temp

°C
Wind Pressure Rain
since 9am
mm
Weather Cloud Vis
km
Sea
Height
m
Swell
Dir
 
Speed
knots
Gust
knots
hPa Trend Height
m
Period
s
Dir
30/11:30pm 29.3 ENE 9 14 1011.3 - - - - - - - - -
30/11:00pm 30.2 E 9 17 1011.1 - - - - - - - - -
30/10:30pm 30.9 E 8 17 1010.8 - - - - - - - - -
30/10:00pm 31.5 E 5 13 1010.6 - - - - - - - - -
30/09:30pm 30.8 SE 3 9 1010.5 - - - - - - - - -
30/09:00pm 29.9 SSE 1 4 1010.0 - - - - - - - - -
30/08:30pm 30.4 SSE 2 3 1009.7 - - - - - - - - -
30/08:00pm 31.2 ESE 1 3 1009.6 - - - - - - - - -
30/07:30pm 30.8 SSE 2 4 1009.5 - - - - - - - - -
30/07:00pm 32.6 E 2 6 1009.3 - - - - - - - - -
30/06:30pm 33.3 E 4 8 1009.2 - - - - - - - - -
30/06:00pm 33.6 ENE 7 12 1008.7 - - - - - - - - -
30/05:30pm 34.1 ENE 8 17 1008.9 - - - - - - - - -
30/05:00pm 34.3 E 6 12 1009.2 - - - - - - - - -
30/04:30pm 34.1 E 2 6 1009.1 - - - - - - - - -
30/04:00pm 33.6 SE 3 9 1009.1 - - - - - - - - -
30/03:30pm 34.4 ENE 4 6 1009.1 - - - - - - - - -
30/03:00pm 34.5 E 4 10 1009.3 - - - - - - - - -
30/02:30pm 34.7 ENE 7 14 1009.7 - - - - - - - - -
30/02:00pm 34.3 ENE 8 13 1009.9 - - - - - - - - -
30/01:30pm 33.9 E 9 17 1010.0 - - - - - - - - -
30/01:00pm 34.8 E 6 11 1010.0 - - - - - - - - -
30/12:36pm 34.3 SE 4 11 1010.1 - - - - - - - - -
30/12:30pm 29.2 SSW 3 6 1010.1 - - - - - - - - -
30/12:00pm 32.7 SE 3 7 1010.4 - - - - - - - - -
30/11:30am 32.3 E 4 11 1010.5 - - - - - - - - -
30/11:00am 31.8 E 3 7 1010.3 - - - - - - - - -
30/10:30am 29.6 E 5 10 1010.7 - - - - - - - - -
30/10:00am 28.2 SW 1 3 1010.9 - - - - - - - - -
30/09:30am 27.7 ESE 3 7 1010.6 - - - - - - - - -
30/09:00am 27.9 E 5 10 1010.7 - - - - - - - - -
30/08:30am 27.6 ENE 7 13 1010.5 - - - - - - - - -
30/08:00am 26.7 ESE 2 5 1010.3 - - - - - - - - -
30/07:30am 26.1 SSW 4 10 1010.1 - - - - - - - - -
30/07:00am 26.0 E 2 5 1010.0 - - - - - - - - -
30/06:30am 25.5 E 2 6 1009.6 - - - - - - - - -
30/06:00am 25.3 SE 2 4 1009.4 - - - - - - - - -
30/05:30am 24.6 E 1 5 1009.2 - - - - - - - - -
30/05:00am 23.5 SE 1 3 1009.2 - - - - - - - - -
30/04:30am 23.1 E 1 2 1009.1 - - - - - - - - -
30/04:00am 23.0 CALM 0 1 1008.9 - - - - - - - - -
30/03:30am 23.9 SSE 1 3 1008.7 - - - - - - - - -
30/03:00am 23.7 CALM 0 2 1008.8 - - - - - - - - -
30/02:30am 24.0 SSE 2 6 1008.9 - - - - - - - - -
30/02:00am 24.1 SSE 1 3 1008.8 - - - - - - - - -
30/01:30am 23.8 WNW 1 2 1009.1 - - - - - - - - -
30/01:00am 23.6 NNW 1 2 1009.1 - - - - - - - - -
30/12:30am 24.5 E 2 4 1009.1 - - - - - - - - -
30/12:00am 24.4 CALM 0 1 1009.5 - - - - - - - - -
 
Date/Time
WST
Temp

°C
Wind Pressure Rain
since 9am
mm
Weather Cloud Vis
km
Sea
Height
m
Swell
Dir
 
Speed
knots
Gust
knots
hPa Trend Height
m
Period
s
Dir
29/11:30pm 24.9 W 1 2 1009.7 - - - - - - - - -
29/11:00pm 25.6 NNE 3 7 1009.8 - - - - - - - - -
29/10:30pm 24.9 N 2 4 1009.0 - - - - - - - - -
29/10:00pm 24.6 E 1 2 1008.5 - - - - - - - - -
29/09:30pm 24.2 SSW 2 6 1008.4 - - - - - - - - -
29/09:00pm 24.4 SSW 2 7 1008.0 - - - - - - - - -
29/08:30pm 24.2 SSW 4 10 1007.7 - - - - - - - - -
29/08:00pm 24.1 SSW 3 8 1007.6 - - - - - - - - -
29/07:30pm 24.2 SSW 3 9 1007.5 - - - - - - - - -
29/07:00pm 24.5 SSW 4 12 1007.3 - - - - - - - - -
29/06:30pm 24.7 SSW 4 8 1007.1 - - - - - - - - -
29/06:00pm 24.7 SSW 5 12 1006.9 - - - - - - - - -
29/05:30pm 24.6 SSW 5 11 1006.7 - - - - - - - - -
29/05:00pm 24.6 SSW 7 14 1006.5 - - - - - - - - -
29/04:30pm 24.6 SSW 7 12 1006.6 - - - - - - - - -
29/04:00pm 24.9 SSW 6 13 1006.6 - - - - - - - - -
29/03:30pm 24.7 SSW 6 13 1007.1 - - - - - - - - -
29/03:00pm 24.4 SSW 7 15 1007.2 - - - - - - - - -
29/02:30pm 24.5 SSW 8 15 1007.5 - - - - - - - - -
29/02:00pm 24.5 SSW 6 12 1008.0 - - - - - - - - -
29/01:30pm 24.0 SSW 8 14 1008.2 - - - - - - - - -
29/01:00pm 24.3 SSW 6 12 1008.3 - - - - - - - - -
29/12:30pm 24.4 SSW 4 10 1008.4 - - - - - - - - -
29/12:00pm 23.9 S 4 9 1008.7 - - - - - - - - -
29/11:30am 23.6 SSW 4 9 1008.8 - - - - - - - - -
29/11:00am 23.7 SSW 4 10 1009.0 - - - - - - - - -
29/10:30am 23.4 SSW 4 9 1009.4 - - - - - - - - -
29/10:00am 24.4 S 3 8 1009.1 - - - - - - - - -
29/09:30am 24.1 S 3 8 1009.2 - - - - - - - - -
29/09:00am 23.6 SSW 4 9 1009.4 - - - - - - - - -
29/08:30am 23.6 SSW 4 9 1008.8 - - - - - - - - -
29/08:00am 22.7 S 3 8 1008.6 - - - - - - - - -
29/07:30am 22.4 SSW 4 7 1008.6 - - - - - - - - -
29/07:00am 22.7 SW 5 7 1008.7 - - - - - - - - -
29/06:30am 22.8 SW 3 5 1008.2 - - - - - - - - -
29/06:00am 23.9 SSW 3 5 1007.6 - - - - - - - - -
29/05:30am 25.8 SW 2 4 1006.9 - - - - - - - - -
29/05:00am 26.4 SE 2 6 1006.5 - - - - - - - - -
29/04:30am 28.0 ENE 7 18 1005.9 - - - - - - - - -
29/04:00am 26.2 E 3 5 1006.6 - - - - - - - - -
29/03:30am 26.5 NE 1 2 1006.8 - - - - - - - - -
29/03:00am 26.2 E 1 4 1006.6 - - - - - - - - -
29/02:30am 25.2 S 4 7 1006.6 - - - - - - - - -
29/02:00am 22.8 SW 8 13 1007.0 - - - - - - - - -
29/01:30am 22.7 SW 8 12 1007.1 - - - - - - - - -
29/01:00am 22.9 SW 4 7 1006.6 - - - - - - - - -
29/12:30am 23.1 SSW 3 7 1006.7 - - - - - - - - -
29/12:00am 23.3 SSW 3 7 1006.6 - - - - - - - - -
 
Date/Time
WST
Temp

°C
Wind Pressure Rain
since 9am
mm
Weather Cloud Vis
km
Sea
Height
m
Swell
Dir
 
Speed
knots
Gust
knots
hPa Trend Height
m
Period
s
Dir
28/11:30pm 23.3 SSW 6 11 1006.3 - - - - - - - - -
28/11:00pm 23.9 SSW 4 7 1006.4 - - - - - - - - -
28/10:30pm 23.8 SSW 4 6 1006.4 - - - - - - - - -
28/10:00pm 23.8 WSW 6 7 1006.1 - - - - - - - - -
28/09:30pm 25.2 WSW 4 7 1006.0 - - - - - - - - -
28/09:00pm 25.8 WSW 2 3 1006.4 - - - - - - - - -
28/08:30pm 26.2 SSE 1 3 1006.0 - - - - - - - - -
28/08:00pm 25.5 CALM 0 1 1005.8 - - - - - - - - -

Other Formats:

Comma delimited format used in spreadsheet applications
http://www.bom.gov.au/fwo/IDW60701/IDW60701.95605.axf

JavaScript Object Notation format (JSON) in row-major order
http://www.bom.gov.au/fwo/IDW60701/IDW60701.95605.json